Terminal Aerodrome Forecast
Issued by NWS

Home | Current Version | Previous Version | Text Only | Print | Product List | Glossary On
Versions: 1 2 3 4 5 6 7 8 9 10 11 12 13 14 15 16 17 18 19 20 21 22 23 24 25 26 27 28 29 30 31 32 33 34 35 36 37
000
FTAK31 PAFA 041738
TAFAOT
TAF
PAOT 041738Z 0418/0518 07004KT 2SM -SHSN BR OVC007
     FM042000 VRB04KT 4SM -SHSN BR SCT007 OVC015
     FM050000 VRB03KT 6SM -SHSN BR BKN007 OVC015
     FM050700 24005KT 1SM -SN BR BKN007 OVC015
     FM051600 28006KT 4SM -SN BR SCT007 OVC012=

USA.gov is the U.S. government's official web portal to all federal, state and local government web resources and services.